Time;durP1;ratioP1;P1;durP2;ratioP2;P2;SDS_P1;SDS_P2;PMS_P1;PMS_P2;Temp;Humidity;BMP_temperature;BMP_pressure;BME280_temperature;BME280_humidity;BME280_pressure;Samples;Min_cycle;Max_cycle;Signal;HPM_P1;HPM_P2
2022/11/12 00:02:14;;;;;;;;;;;8.10;85.70;;;;;;5044388;28;19921;-77
2022/11/12 00:04:39;;;;;;;;;;;8.10;85.80;;;;;;5041591;28;19968;-76
2022/11/12 00:07:05;;;;;;;;;;;8.10;85.80;;;;;;5045384;28;20005;-76
2022/11/12 00:09:30;;;;;;;;;;;8.10;85.80;;;;;;5024316;28;19961;-75
2022/11/12 00:11:55;;;;;;;;;;;8.10;85.80;;;;;;5043145;28;19927;-77
2022/11/12 00:14:21;;;;;;;;;;;8.10;85.80;;;;;;5028977;28;19932;-75
2022/11/12 00:16:47;;;;;;;;;;;8.10;85.80;;;;;;5044515;28;19912;-76
2022/11/12 00:19:12;;;;;;;;;;;8.10;85.90;;;;;;5045101;28;19909;-76
2022/11/12 00:21:37;;;;;;;;;;;8.10;85.90;;;;;;5042178;28;19919;-76
2022/11/12 00:24:03;;;;;;;;;;;8.10;85.80;;;;;;5033702;28;19925;-76
2022/11/12 00:26:28;;;;;;;;;;;8.10;85.80;;;;;;5047188;28;19925;-76
2022/11/12 00:28:54;;;;;;;;;;;8.10;85.80;;;;;;5031687;28;20368;-77
2022/11/12 00:31:19;;;;;;;;;;;8.10;85.90;;;;;;5034441;28;19929;-77
2022/11/12 00:33:45;;;;;;;;;;;8.10;85.90;;;;;;5026517;28;20008;-77
2022/11/12 00:36:10;;;;;;;;;;;8.10;85.90;;;;;;5040542;28;19925;-76
2022/11/12 00:38:36;;;;;;;;;;;8.10;85.90;;;;;;5028888;28;20246;-76
2022/11/12 00:41:01;;;;;;;;;;;8.00;85.80;;;;;;5044202;28;19991;-76
2022/11/12 00:43:27;;;;;;;;;;;8.00;85.80;;;;;;5042375;28;19918;-77
2022/11/12 00:45:52;;;;;;;;;;;8.00;85.90;;;;;;5040583;28;19911;-76
2022/11/12 00:48:18;;;;;;;;;;;8.00;85.80;;;;;;5036179;28;19949;-77
2022/11/12 00:50:43;;;;;;;;;;;8.00;85.90;;;;;;5015431;28;19980;-77
2022/11/12 00:53:09;;;;;;;;;;;8.00;85.90;;;;;;5028338;28;19921;-77
2022/11/12 00:55:34;;;;;;;;;;;8.00;85.90;;;;;;5023628;28;19933;-76
2022/11/12 00:58:00;;;;;;;;;;;8.00;85.90;;;;;;4998948;28;19921;-77
2022/11/12 01:00:28;;;;;;;;;;;8.00;85.90;;;;;;5031626;28;20423;-76
2022/11/12 01:02:53;;;;;;;;;;;8.00;85.90;;;;;;5009563;28;19921;-77
2022/11/12 01:05:18;;;;;;;;;;;8.00;86.00;;;;;;5015807;28;20405;-76
2022/11/12 01:07:44;;;;;;;;;;;8.00;85.90;;;;;;5044308;28;19980;-77
2022/11/12 01:10:09;;;;;;;;;;;8.00;85.90;;;;;;5041870;28;21327;-75
2022/11/12 01:12:35;;;;;;;;;;;8.00;85.90;;;;;;5041639;28;19921;-76
2022/11/12 01:15:01;;;;;;;;;;;8.00;86.00;;;;;;5041171;28;19932;-77
2022/11/12 01:17:26;;;;;;;;;;;8.00;86.00;;;;;;5041980;28;19917;-75
2022/11/12 01:19:52;;;;;;;;;;;8.00;86.00;;;;;;5041218;28;19979;-76
2022/11/12 01:22:17;;;;;;;;;;;8.00;86.00;;;;;;5042586;28;19932;-76
2022/11/12 01:24:43;;;;;;;;;;;8.00;86.00;;;;;;5043393;28;19951;-77
2022/11/12 01:27:08;;;;;;;;;;;8.00;86.00;;;;;;5041698;28;19918;-76
2022/11/12 01:29:34;;;;;;;;;;;8.00;86.80;;;;;;5026166;28;20016;-76
2022/11/12 01:31:59;;;;;;;;;;;8.00;86.00;;;;;;5012662;28;19920;-76
2022/11/12 01:34:24;;;;;;;;;;;8.00;86.00;;;;;;5040508;28;19960;-75
2022/11/12 01:36:50;;;;;;;;;;;8.00;86.00;;;;;;5033232;28;19943;-76
2022/11/12 01:39:15;;;;;;;;;;;8.00;86.00;;;;;;5026558;28;19940;-76
2022/11/12 01:41:41;;;;;;;;;;;8.00;86.00;;;;;;5029596;28;19930;-76
2022/11/12 01:44:06;;;;;;;;;;;8.00;86.00;;;;;;5016133;28;19901;-76
2022/11/12 01:46:36;;;;;;;;;;;8.00;86.00;;;;;;5035203;28;20549;-77
2022/11/12 01:49:02;;;;;;;;;;;8.00;86.00;;;;;;5030796;28;19948;-76
2022/11/12 01:51:30;;;;;;;;;;;8.00;86.00;;;;;;5007479;28;19901;-76
2022/11/12 01:53:58;;;;;;;;;;;8.00;86.00;;;;;;5030270;28;19928;-76
2022/11/12 01:56:23;;;;;;;;;;;8.00;86.00;;;;;;5031687;28;19984;-76
2022/11/12 01:58:51;;;;;;;;;;;7.90;85.90;;;;;;5027194;28;19933;-76
2022/11/12 02:01:16;;;;;;;;;;;7.90;85.90;;;;;;5021538;28;19921;-77
2022/11/12 02:03:41;;;;;;;;;;;7.90;85.90;;;;;;5039820;28;19906;-75
2022/11/12 02:06:08;;;;;;;;;;;7.90;86.00;;;;;;5031758;28;19927;-77
2022/11/12 02:08:33;;;;;;;;;;;7.90;86.00;;;;;;5013359;28;19921;-76
2022/11/12 02:11:09;;;;;;;;;;;7.90;86.00;;;;;;5003988;28;19960;-76
2022/11/12 02:16:20;;;;;;;;;;;7.80;86.00;;;;;;5040666;28;19948;-77
2022/11/12 02:18:46;;;;;;;;;;;7.90;86.10;;;;;;5028674;28;19909;-76
2022/11/12 02:21:11;;;;;;;;;;;7.90;86.10;;;;;;5043008;28;19913;-77
2022/11/12 02:23:37;;;;;;;;;;;7.80;86.00;;;;;;5024329;28;20345;-75
2022/11/12 02:26:03;;;;;;;;;;;7.80;86.00;;;;;;5039516;28;19976;-76
2022/11/12 02:28:30;;;;;;;;;;;7.80;86.00;;;;;;5026652;28;19988;-76
2022/11/12 02:30:56;;;;;;;;;;;7.80;86.00;;;;;;5024440;28;19947;-75
2022/11/12 02:33:21;;;;;;;;;;;7.80;86.00;;;;;;5041747;28;19922;-76
2022/11/12 02:35:47;;;;;;;;;;;7.80;86.00;;;;;;5040773;28;19913;-75
2022/11/12 02:38:12;;;;;;;;;;;7.80;86.00;;;;;;5028492;28;20597;-74
2022/11/12 02:40:38;;;;;;;;;;;7.80;86.00;;;;;;5024615;28;19909;-75
2022/11/12 02:43:03;;;;;;;;;;;7.80;86.00;;;;;;5033055;28;19925;-75
2022/11/12 02:45:30;;;;;;;;;;;7.80;86.00;;;;;;5037651;28;20289;-75
2022/11/12 02:47:56;;;;;;;;;;;7.80;86.00;;;;;;5026932;28;20401;-75
2022/11/12 02:50:22;;;;;;;;;;;7.80;86.00;;;;;;5018331;28;19929;-75
2022/11/12 02:52:47;;;;;;;;;;;7.80;86.00;;;;;;5035824;28;23099;-75
2022/11/12 02:55:12;;;;;;;;;;;7.80;86.10;;;;;;5021610;28;19921;-75
2022/11/12 02:57:38;;;;;;;;;;;7.80;86.10;;;;;;5024234;28;19921;-75
2022/11/12 03:00:19;;;;;;;;;;;7.80;86.00;;;;;;5043264;28;19909;-76
2022/11/12 03:02:57;;;;;;;;;;;7.80;86.00;;;;;;5036244;28;19917;-76
2022/11/12 03:05:23;;;;;;;;;;;7.80;86.10;;;;;;5037418;28;19929;-75
2022/11/12 03:07:51;;;;;;;;;;;7.80;86.10;;;;;;5038941;28;19918;-76
2022/11/12 03:10:16;;;;;;;;;;;7.80;86.20;;;;;;5039418;28;19916;-77
2022/11/12 03:12:42;;;;;;;;;;;7.70;86.10;;;;;;5036227;28;19905;-76
2022/11/12 03:15:07;;;;;;;;;;;7.70;86.10;;;;;;5025907;28;19924;-76
2022/11/12 03:17:33;;;;;;;;;;;7.70;86.10;;;;;;5036283;28;19917;-76
2022/11/12 03:19:58;;;;;;;;;;;7.70;86.20;;;;;;5015782;28;19921;-75
2022/11/12 03:22:24;;;;;;;;;;;7.70;86.20;;;;;;5039802;28;19964;-76
2022/11/12 03:24:49;;;;;;;;;;;7.70;86.20;;;;;;5029374;28;19956;-76
2022/11/12 03:27:15;;;;;;;;;;;7.60;86.20;;;;;;5028687;28;19928;-75
2022/11/12 03:29:40;;;;;;;;;;;7.70;86.30;;;;;;5010602;28;19929;-76
2022/11/12 03:32:06;;;;;;;;;;;7.70;86.30;;;;;;5016255;28;19947;-75
2022/11/12 03:34:31;;;;;;;;;;;7.60;86.30;;;;;;5018367;28;19917;-76
2022/11/12 03:36:57;;;;;;;;;;;7.60;86.30;;;;;;5013307;28;19921;-76
2022/11/12 03:39:22;;;;;;;;;;;7.60;86.30;;;;;;5013016;28;19925;-76
2022/11/12 03:41:48;;;;;;;;;;;7.60;86.30;;;;;;5031181;28;20307;-75
2022/11/12 03:44:13;;;;;;;;;;;7.60;86.30;;;;;;5015108;28;19949;-75
2022/11/12 03:46:39;;;;;;;;;;;7.60;86.30;;;;;;4996032;28;19948;-75
2022/11/12 03:49:04;;;;;;;;;;;7.60;86.30;;;;;;5031277;28;19922;-75
2022/11/12 03:51:29;;;;;;;;;;;7.50;86.30;;;;;;5016022;28;20131;-75
2022/11/12 03:53:55;;;;;;;;;;;7.50;86.40;;;;;;5014146;28;19917;-75
2022/11/12 03:56:23;;;;;;;;;;;7.50;86.40;;;;;;5014436;28;19917;-75
2022/11/12 03:58:48;;;;;;;;;;;7.50;86.40;;;;;;5010921;28;19917;-75
2022/11/12 04:01:14;;;;;;;;;;;7.50;86.40;;;;;;5021209;28;19921;-75
2022/11/12 04:03:39;;;;;;;;;;;7.50;86.40;;;;;;5032274;28;19920;-75
2022/11/12 04:08:49;;;;;;;;;;;7.50;86.40;;;;;;5001362;28;19928;-76
2022/11/12 04:11:14;;;;;;;;;;;7.50;86.40;;;;;;5006346;28;19926;-76
2022/11/12 04:13:40;;;;;;;;;;;7.50;86.40;;;;;;5028247;28;25096;-75
2022/11/12 04:21:55;;;;;;;;;;;7.60;86.40;;;;;;5028384;28;20078;-75
2022/11/12 04:27:06;;;;;;;;;;;7.50;86.50;;;;;;5013407;28;19968;-75
2022/11/12 04:32:15;;;;;;;;;;;7.50;86.40;;;;;;5029278;28;20463;-75
2022/11/12 22:19:37;;;;;;;;;;;8.50;86.00;;;;;;5012404;28;20228;-75
2022/11/12 22:22:03;;;;;;;;;;;8.50;86.00;;;;;;5011155;28;19929;-75
2022/11/12 22:24:29;;;;;;;;;;;8.40;85.90;;;;;;4991464;28;19968;-78
2022/11/12 22:26:54;;;;;;;;;;;8.40;86.00;;;;;;4997532;28;19917;-75
2022/11/12 22:29:20;;;;;;;;;;;8.40;86.00;;;;;;5007433;28;19923;-76
2022/11/12 22:31:45;;;;;;;;;;;8.40;86.50;;;;;;5029157;28;20617;-76
2022/11/12 22:34:11;;;;;;;;;;;8.40;86.00;;;;;;5013848;28;19936;-76
2022/11/12 22:36:36;;;;;;;;;;;8.40;86.00;;;;;;4995232;28;19917;-75
2022/11/12 22:39:03;;;;;;;;;;;8.40;86.00;;;;;;5012922;28;19949;-75
2022/11/12 22:41:29;;;;;;;;;;;8.30;86.10;;;;;;5013933;28;19951;-76
2022/11/12 22:43:55;;;;;;;;;;;8.30;86.00;;;;;;4997064;28;19922;-76
2022/11/12 22:46:24;;;;;;;;;;;8.30;86.00;;;;;;5014400;28;19993;-76
2022/11/12 22:48:50;;;;;;;;;;;8.30;86.00;;;;;;5013211;28;19932;-75
2022/11/12 22:51:16;;;;;;;;;;;8.30;86.00;;;;;;5029929;28;19925;-77
2022/11/12 22:53:41;;;;;;;;;;;8.20;86.00;;;;;;5027695;28;19921;-76
2022/11/12 22:56:08;;;;;;;;;;;8.20;86.00;;;;;;5014726;28;20391;-75
2022/11/12 22:58:40;;;;;;;;;;;8.20;86.10;;;;;;5015217;28;19928;-76
2022/11/12 23:01:06;;;;;;;;;;;8.20;86.10;;;;;;5016647;28;19921;-76
2022/11/12 23:03:32;;;;;;;;;;;8.20;86.10;;;;;;5010371;28;19989;-76
2022/11/12 23:05:57;;;;;;;;;;;8.10;86.00;;;;;;5014930;28;19984;-75
2022/11/12 23:08:23;;;;;;;;;;;8.10;86.10;;;;;;4999026;28;20374;-76
2022/11/12 23:10:49;;;;;;;;;;;8.10;86.10;;;;;;5015080;28;19925;-76
2022/11/12 23:13:14;;;;;;;;;;;8.10;86.10;;;;;;5029586;28;19921;-75
2022/11/12 23:15:43;;;;;;;;;;;8.00;86.10;;;;;;4991340;28;19925;-75
2022/11/12 23:18:08;;;;;;;;;;;8.00;86.10;;;;;;4993806;28;19926;-76
2022/11/12 23:20:34;;;;;;;;;;;8.00;86.10;;;;;;5017915;28;19927;-75
2022/11/12 23:22:59;;;;;;;;;;;8.00;86.10;;;;;;5000623;28;20411;-76
2022/11/12 23:25:25;;;;;;;;;;;8.00;86.10;;;;;;5027774;28;19928;-76
2022/11/12 23:27:50;;;;;;;;;;;8.00;86.20;;;;;;5012864;28;19929;-75
2022/11/12 23:30:15;;;;;;;;;;;8.00;86.20;;;;;;5015529;28;19936;-76
2022/11/12 23:32:41;;;;;;;;;;;7.90;86.10;;;;;;4991935;28;19952;-75
2022/11/12 23:35:07;;;;;;;;;;;7.90;86.10;;;;;;4997413;28;19921;-76
2022/11/12 23:37:32;;;;;;;;;;;7.90;86.10;;;;;;5013325;28;20305;-76
2022/11/12 23:39:58;;;;;;;;;;;7.90;86.10;;;;;;5012498;28;19990;-75
2022/11/12 23:42:23;;;;;;;;;;;7.90;86.20;;;;;;5015401;28;19922;-76
2022/11/12 23:44:49;;;;;;;;;;;7.90;86.20;;;;;;4989036;28;19917;-76
2022/11/12 23:47:14;;;;;;;;;;;7.90;86.30;;;;;;5019908;28;19995;-76
2022/11/12 23:49:39;;;;;;;;;;;7.80;86.20;;;;;;4997681;28;19928;-76
2022/11/12 23:52:05;;;;;;;;;;;7.80;86.20;;;;;;5012050;28;20591;-75
2022/11/12 23:54:30;;;;;;;;;;;7.80;86.30;;;;;;5032899;28;19951;-76
2022/11/12 23:56:56;;;;;;;;;;;7.80;86.30;;;;;;5005068;28;19949;-75
2022/11/12 23:59:21;;;;;;;;;;;7.80;86.30;;;;;;5016318;28;20105;-76
